Time;durP1;ratioP1;P1;durP2;ratioP2;P2;SDS_P1;SDS_P2;PMS_P1;PMS_P2;Temp;Humidity;BMP_temperature;BMP_pressure;BME280_temperature;BME280_humidity;BME280_pressure;Samples;Min_cycle;Max_cycle;Signal;HPM_P1;HPM_P2
2021/08/03 00:01:45;;;;;;;8.63;4.80;;;22.20;96.10;;;;;;5065751;28;20060;-69
2021/08/03 00:04:16;;;;;;;6.88;4.78;;;22.30;96.40;;;;;;5033702;28;20038;-69
2021/08/03 00:07:01;;;;;;;7.97;4.50;;;22.20;96.10;;;;;;5065709;28;20021;-69
2021/08/03 00:09:32;;;;;;;8.38;5.10;;;22.20;96.20;;;;;;5033373;28;20494;-70
2021/08/03 00:11:59;;;;;;;8.38;5.10;;;22.20;96.20;;;;;;5038762;28;20033;-75
2021/08/03 00:14:25;;;;;;;8.93;4.22;;;22.20;96.30;;;;;;5039694;28;20375;-75
2021/08/03 00:16:52;;;;;;;8.48;4.68;;;22.20;96.10;;;;;;5038693;28;20451;-74
2021/08/03 00:19:22;;;;;;;5.63;4.32;;;22.30;96.30;;;;;;5039940;28;20371;-75
2021/08/03 00:21:49;;;;;;;10.65;4.97;;;22.20;96.00;;;;;;5039011;28;20029;-75
2021/08/03 00:24:16;;;;;;;7.50;4.85;;;22.20;95.90;;;;;;5039277;28;20451;-75
2021/08/03 00:26:42;;;;;;;8.55;4.90;;;22.20;95.80;;;;;;5039923;28;20067;-74
2021/08/03 00:29:09;;;;;;;7.03;4.80;;;22.20;95.60;;;;;;5038419;28;20026;-75
2021/08/03 00:31:35;;;;;;;11.05;5.20;;;22.20;95.50;;;;;;5038342;28;20029;-75
2021/08/03 00:34:02;;;;;;;10.85;5.03;;;22.20;95.50;;;;;;5038684;28;20375;-77
2021/08/03 00:36:32;;;;;;;9.25;4.80;;;22.20;95.30;;;;;;5038507;28;20452;-75
2021/08/03 00:38:58;;;;;;;5.60;3.63;;;22.20;95.20;;;;;;5071536;28;20064;-75
2021/08/03 00:41:30;;;;;;;5.55;3.20;;;22.10;94.80;;;;;;5072111;28;20375;-73
2021/08/03 00:43:57;;;;;;;4.60;2.53;;;22.10;94.00;;;;;;5039936;28;20385;-75
2021/08/03 00:46:23;;;;;;;4.30;2.90;;;22.20;93.30;;;;;;5071611;28;20471;-75
2021/08/03 00:48:48;;;;;;;6.63;2.53;;;22.20;92.90;;;;;;5038171;28;20025;-75
2021/08/03 00:51:14;;;;;;;3.95;2.70;;;22.20;92.20;;;;;;5039721;28;20026;-76
2021/08/03 00:53:43;;;;;;;7.18;2.97;;;22.20;92.00;;;;;;5038664;28;20017;-76
2021/08/03 00:56:10;;;;;;;4.53;2.35;;;22.20;91.80;;;;;;5038457;28;20025;-76
2021/08/03 00:58:39;;;;;;;4.28;2.42;;;22.20;91.50;;;;;;5038013;28;20108;-76
2021/08/03 01:01:05;;;;;;;3.55;2.50;;;22.10;91.20;;;;;;5039068;28;20036;-76
2021/08/03 01:03:30;;;;;;;3.80;2.50;;;22.10;90.90;;;;;;5040070;28;20117;-76
2021/08/03 01:06:05;;;;;;;3.22;2.38;;;22.10;90.60;;;;;;5039784;28;20136;-76
2021/08/03 01:08:40;;;;;;;3.80;2.67;;;22.10;90.30;;;;;;5039896;28;20091;-75
2021/08/03 01:11:18;;;;;;;4.18;2.10;;;22.10;90.20;;;;;;5037838;28;20026;-75
2021/08/03 01:14:06;;;;;;;6.10;2.15;;;22.00;90.00;;;;;;5038469;28;20036;-76
2021/08/03 01:16:54;;;;;;;3.38;2.35;;;22.00;90.10;;;;;;5039629;28;20056;-76
2021/08/03 01:19:46;;;;;;;4.22;2.80;;;22.00;90.10;;;;;;5037652;28;20468;-76
2021/08/03 01:22:49;;;;;;;2.70;2.20;;;22.00;90.10;;;;;;5037410;28;20130;-76
2021/08/03 01:25:35;;;;;;;3.65;2.40;;;22.00;90.20;;;;;;5036815;28;20044;-76
2021/08/03 01:28:09;;;;;;;5.57;2.30;;;21.90;89.90;;;;;;5037402;28;20057;-76
2021/08/03 01:30:37;;;;;;;3.47;2.10;;;21.90;90.10;;;;;;5037515;28;20057;-76
2021/08/03 01:33:05;;;;;;;4.05;2.10;;;21.90;90.00;;;;;;5037812;28;20031;-77
2021/08/03 01:35:31;;;;;;;2.05;1.50;;;21.90;89.40;;;;;;5036961;28;20071;-77
2021/08/03 01:37:59;;;;;;;4.05;1.67;;;21.90;88.30;;;;;;5035981;28;20029;-76
2021/08/03 01:40:28;;;;;;;2.35;1.50;;;21.90;87.40;;;;;;5068184;28;20091;-76
2021/08/03 01:42:53;;;;;;;2.53;1.90;;;21.80;86.80;;;;;;5034979;28;20143;-76
2021/08/03 01:45:22;;;;;;;4.38;1.65;;;21.80;87.00;;;;;;5034809;28;20022;-76
2021/08/03 01:47:48;;;;;;;7.22;1.80;;;21.80;86.40;;;;;;5034874;28;20052;-72
2021/08/03 01:50:14;;;;;;;4.72;1.90;;;21.80;86.30;;;;;;5034383;28;20064;-73
2021/08/03 01:52:42;;;;;;;3.33;1.80;;;21.80;86.00;;;;;;5034143;28;20028;-74
2021/08/03 01:55:09;;;;;;;5.10;1.73;;;21.70;85.90;;;;;;5035489;28;20100;-74
2021/08/03 01:57:39;;;;;;;3.17;1.80;;;21.70;86.20;;;;;;5034522;28;20060;-74
2021/08/03 02:00:05;;;;;;;2.08;1.60;;;21.70;86.10;;;;;;5035409;28;20070;-74
2021/08/03 02:02:32;;;;;;;2.42;1.60;;;21.60;86.30;;;;;;5036034;28;20029;-74
2021/08/03 02:04:59;;;;;;;2.33;1.70;;;21.60;85.90;;;;;;5033989;28;20059;-75
2021/08/03 02:07:27;;;;;;;2.65;1.63;;;21.60;86.40;;;;;;5034929;28;20033;-74
2021/08/03 02:09:55;;;;;;;2.30;1.42;;;21.50;86.40;;;;;;5027650;28;20468;-74
2021/08/03 02:12:21;;;;;;;3.47;1.70;;;21.60;86.30;;;;;;5041092;28;20045;-73
2021/08/03 02:14:47;;;;;;;3.70;1.85;;;21.50;86.20;;;;;;5053041;28;20060;-74
2021/08/03 02:17:19;;;;;;;2.42;1.73;;;21.50;86.30;;;;;;5055330;28;20478;-74
2021/08/03 02:19:45;;;;;;;2.72;1.80;;;21.50;86.30;;;;;;5055075;28;20493;-74
2021/08/03 02:22:12;;;;;;;3.95;2.00;;;21.50;86.40;;;;;;5053979;28;20028;-74
2021/08/03 02:24:38;;;;;;;5.00;1.80;;;21.50;86.30;;;;;;5055752;28;20020;-74
2021/08/03 02:27:04;;;;;;;2.72;1.60;;;21.50;86.30;;;;;;5054047;28;20074;-74
2021/08/03 02:29:30;;;;;;;4.18;1.75;;;21.40;86.40;;;;;;5053809;28;20028;-74
2021/08/03 02:32:06;;;;;;;2.67;1.80;;;21.50;86.50;;;;;;5053932;28;20129;-74
2021/08/03 02:34:36;;;;;;;3.33;1.85;;;21.50;86.50;;;;;;5052434;28;20070;-74
2021/08/03 02:37:06;;;;;;;3.08;1.80;;;21.40;86.80;;;;;;5053783;28;20025;-74
2021/08/03 02:39:34;;;;;;;3.60;1.98;;;21.40;87.20;;;;;;5054947;28;20459;-74
2021/08/03 02:42:01;;;;;;;3.28;1.98;;;21.40;87.30;;;;;;5053814;28;20043;-74
2021/08/03 02:44:28;;;;;;;2.92;1.92;;;21.50;86.90;;;;;;5054739;28;20020;-74
2021/08/03 02:46:55;;;;;;;4.68;1.77;;;21.50;86.70;;;;;;5053412;28;20174;-74
2021/08/03 02:50:08;;;;;;;2.85;2.10;;;21.50;86.40;;;;;;5054888;28;20028;-74
2021/08/03 02:52:17;;;;;;;3.35;1.80;;;21.50;86.30;;;;;;5054376;28;20098;-74
2021/08/03 02:54:48;;;;;;;2.80;1.77;;;21.50;86.20;;;;;;5053653;28;20354;-74
2021/08/03 02:57:16;;;;;;;6.00;2.08;;;21.40;86.00;;;;;;5053574;28;20017;-74
2021/08/03 02:59:47;;;;;;;2.92;1.90;;;21.40;86.60;;;;;;5054859;28;20032;-74
2021/08/03 03:02:14;;;;;;;4.75;1.80;;;21.40;86.50;;;;;;5055291;28;20100;-74
2021/08/03 03:04:47;;;;;;;3.50;1.80;;;21.40;86.20;;;;;;5053714;28;20471;-74
2021/08/03 03:07:22;;;;;;;3.35;2.00;;;21.40;85.80;;;;;;5053388;28;20108;-74
2021/08/03 03:09:50;;;;;;;5.75;2.08;;;21.30;85.80;;;;;;5053190;28;20463;-74
2021/08/03 03:12:17;;;;;;;2.72;2.00;;;21.30;85.80;;;;;;5054388;28;20418;-74
2021/08/03 03:14:44;;;;;;;5.10;1.95;;;21.30;86.50;;;;;;5054263;28;20078;-80
2021/08/03 03:17:12;;;;;;;3.92;2.00;;;21.30;86.20;;;;;;5053044;28;20462;-78
2021/08/03 03:19:40;;;;;;;3.35;2.28;;;21.30;86.00;;;;;;5052830;28;20036;-78
2021/08/03 03:22:08;;;;;;;4.32;2.50;;;21.20;86.20;;;;;;5052864;28;20068;-77
2021/08/03 03:24:36;;;;;;;4.18;2.00;;;21.10;86.20;;;;;;5054263;28;20112;-82
2021/08/03 03:27:03;;;;;;;3.45;1.92;;;21.00;86.60;;;;;;5054508;28;20465;-83
2021/08/03 03:29:30;;;;;;;3.88;2.28;;;20.90;87.00;;;;;;5052734;28;20020;-82
2021/08/03 03:31:57;;;;;;;5.00;2.13;;;20.80;87.70;;;;;;5052852;28;20017;-82
2021/08/03 03:34:26;;;;;;;3.92;2.47;;;20.80;87.80;;;;;;5053862;28;20463;-81
2021/08/03 03:36:52;;;;;;;3.58;2.17;;;20.70;87.90;;;;;;5052503;28;20036;-80
2021/08/03 03:39:19;;;;;;;4.15;2.28;;;20.60;88.20;;;;;;5053760;28;20029;-81
2021/08/03 03:41:56;;;;;;;4.32;2.95;;;20.60;88.50;;;;;;5053997;28;20033;-81
2021/08/03 03:44:22;;;;;;;7.18;3.95;;;20.60;88.40;;;;;;5052827;28;20075;-81
2021/08/03 03:46:58;;;;;;;3.75;2.92;;;20.60;89.00;;;;;;5052587;28;20397;-81
2021/08/03 03:49:24;;;;;;;;;;;20.60;88.40;;;;;;5052910;28;20110;-81
2021/08/03 03:51:50;;;;;;;3.25;2.17;;;20.70;90.00;;;;;;5052884;28;19901;-81
2021/08/03 03:54:26;;;;;;;6.47;3.40;;;20.70;89.80;;;;;;5053041;28;20024;-81
2021/08/03 03:56:58;;;;;;;5.97;3.97;;;20.80;89.60;;;;;;5053834;28;20071;-80
2021/08/03 03:59:24;;;;;;;4.70;3.53;;;20.80;89.50;;;;;;5052246;28;20021;-81
2021/08/03 04:01:52;;;;;;;2.97;2.17;;;20.90;89.20;;;;;;5053114;28;20029;-79
2021/08/03 04:04:19;;;;;;;3.92;2.17;;;21.00;88.90;;;;;;5053785;28;20025;-80
2021/08/03 04:06:45;;;;;;;3.35;2.42;;;21.00;88.00;;;;;;5045603;28;20025;-83
2021/08/03 04:09:21;;;;;;;3.20;2.00;;;21.00;87.40;;;;;;5035849;28;20025;-80
2021/08/03 04:11:48;;;;;;;3.72;2.25;;;21.00;86.80;;;;;;5040053;28;20014;-80
2021/08/03 04:14:16;;;;;;;5.30;1.95;;;21.00;86.60;;;;;;5037009;28;20025;-81
2021/08/03 04:16:42;;;;;;;2.58;1.80;;;21.10;86.40;;;;;;5032509;28;20017;-80
2021/08/03 04:19:08;;;;;;;4.60;1.95;;;21.00;86.00;;;;;;5032435;28;20032;-79
2021/08/03 04:21:34;;;;;;;3.15;1.90;;;21.10;86.00;;;;;;5033442;28;20320;-72
2021/08/03 04:24:00;;;;;;;2.92;2.03;;;21.10;85.80;;;;;;5032373;28;20103;-72
2021/08/03 04:26:26;;;;;;;2.97;1.98;;;21.20;85.80;;;;;;5033497;28;20406;-69
2021/08/03 04:28:52;;;;;;;3.45;2.00;;;21.30;85.20;;;;;;5031484;28;20022;-70
2021/08/03 04:31:17;;;;;;;4.35;2.00;;;21.30;84.80;;;;;;5033764;28;20340;-68
2021/08/03 04:33:43;;;;;;;3.55;2.03;;;21.40;84.80;;;;;;5032556;28;20076;-70
2021/08/03 04:36:09;;;;;;;4.03;1.80;;;21.50;84.60;;;;;;5034195;28;20018;-70
2021/08/03 04:38:34;;;;;;;4.05;2.05;;;21.70;84.50;;;;;;5033395;28;20113;-70
2021/08/03 04:41:00;;;;;;;2.60;2.00;;;21.80;84.10;;;;;;5031959;28;20052;-70
2021/08/03 04:43:26;;;;;;;4.13;1.98;;;21.90;83.60;;;;;;5033007;28;20075;-71
2021/08/03 04:45:52;;;;;;;3.60;2.15;;;22.30;83.80;;;;;;5031910;28;20017;-70
2021/08/03 04:48:18;;;;;;;6.20;1.95;;;22.70;82.60;;;;;;5030265;28;20021;-71
2021/08/03 04:50:44;;;;;;;3.75;1.90;;;23.00;80.80;;;;;;5031181;28;20029;-72
2021/08/03 04:53:09;;;;;;;3.67;1.70;;;23.10;79.70;;;;;;5030513;28;20060;-72
2021/08/03 04:55:35;;;;;;;2.63;1.75;;;23.20;79.00;;;;;;5041885;28;20071;-73
2021/08/03 04:58:01;;;;;;;2.63;1.80;;;23.30;78.60;;;;;;5041616;28;20040;-72
2021/08/03 05:00:26;;;;;;;3.08;2.00;;;23.30;78.50;;;;;;5034940;28;20025;-72
2021/08/03 05:02:52;;;;;;;7.45;2.10;;;23.60;78.90;;;;;;5033416;28;20028;-72
2021/08/03 05:05:18;;;;;;;4.22;2.13;;;24.00;78.00;;;;;;5030246;28;20076;-73
2021/08/03 05:08:13;;;;;;;3.58;2.03;;;24.30;77.20;;;;;;5035712;28;20053;-73
2021/08/03 05:10:39;;;;;;;6.45;1.90;;;25.10;76.60;;;;;;5032130;28;20348;-81
2021/08/03 05:13:05;;;;;;;4.30;1.70;;;25.40;74.80;;;;;;5031396;28;20363;-75
2021/08/03 05:15:30;;;;;;;3.47;2.00;;;25.40;73.30;;;;;;5068247;28;20040;-75
2021/08/03 05:17:58;;;;;;;3.75;2.00;;;25.30;72.20;;;;;;5035087;28;20053;-75
2021/08/03 05:20:24;;;;;;;2.40;1.65;;;25.20;71.20;;;;;;5034680;28;20459;-75
2021/08/03 05:22:49;;;;;;;3.90;2.10;;;25.00;70.90;;;;;;5068358;28;20021;-75
2021/08/03 05:25:15;;;;;;;2.63;1.98;;;24.80;71.00;;;;;;5035961;28;20180;-75
2021/08/03 05:27:41;;;;;;;3.28;2.00;;;24.50;71.00;;;;;;5034054;28;20102;-74
2021/08/03 05:30:08;;;;;;;2.90;1.92;;;24.30;71.40;;;;;;5067869;28;20053;-75
2021/08/03 05:32:34;;;;;;;3.58;1.75;;;24.20;71.70;;;;;;5036047;28;20506;-74
2021/08/03 05:34:59;;;;;;;6.55;2.15;;;24.00;71.60;;;;;;5034064;28;20029;-76
2021/08/03 05:37:25;;;;;;;3.50;2.00;;;23.80;71.70;;;;;;5034701;28;20383;-73
2021/08/03 05:39:51;;;;;;;5.55;2.42;;;23.60;71.70;;;;;;5035733;28;20371;-83
2021/08/03 05:42:16;;;;;;;4.22;2.10;;;23.40;72.10;;;;;;5068151;28;20035;-71
2021/08/03 05:44:42;;;;;;;4.85;2.20;;;23.30;72.30;;;;;;5035156;28;20040;-73
2021/08/03 05:47:08;;;;;;;3.70;2.15;;;23.30;73.00;;;;;;5034514;28;20032;-67
2021/08/03 05:49:34;;;;;;;3.35;2.05;;;23.20;73.60;;;;;;5067605;28;20443;-68
2021/08/03 05:52:02;;;;;;;3.70;2.13;;;23.20;73.60;;;;;;5032363;28;20029;-76
2021/08/03 05:54:29;;;;;;;4.30;2.35;;;23.20;74.00;;;;;;5034026;28;20103;-67
2021/08/03 05:56:54;;;;;;;4.18;2.40;;;23.20;74.20;;;;;;5033634;28;20022;-68
2021/08/03 05:59:20;;;;;;;4.13;2.40;;;23.30;75.10;;;;;;5044251;28;20036;-67
2021/08/03 06:01:46;;;;;;;3.83;2.10;;;24.00;75.60;;;;;;5053925;28;20025;-69
2021/08/03 06:04:12;;;;;;;3.55;2.03;;;24.80;74.60;;;;;;5052025;28;20048;-68
2021/08/03 06:06:39;;;;;;;5.43;2.60;;;25.70;72.90;;;;;;5052153;28;20033;-69
2021/08/03 06:09:11;;;;;;;8.70;2.95;;;26.90;71.80;;;;;;5051981;28;20029;-68
2021/08/03 06:11:47;;;;;;;2.60;1.90;;;27.50;68.50;;;;;;5053886;28;20467;-69
2021/08/03 06:14:32;;;;;;;5.55;2.35;;;28.00;66.50;;;;;;5054098;28;20021;-69
2021/08/03 06:17:03;;;;;;;4.80;2.03;;;28.40;65.10;;;;;;5053456;28;20031;-68
2021/08/03 06:19:32;;;;;;;4.47;2.25;;;28.60;63.80;;;;;;5053751;28;20029;-69
2021/08/03 06:22:00;;;;;;;5.35;2.30;;;29.00;63.60;;;;;;5053802;28;20375;-67
2021/08/03 06:24:29;;;;;;;3.50;1.90;;;29.80;62.80;;;;;;5055318;28;20017;-67
2021/08/03 06:26:56;;;;;;;3.53;2.05;;;30.50;60.30;;;;;;5054202;28;20021;-67
2021/08/03 06:29:24;;;;;;;2.90;2.03;;;30.70;58.50;;;;;;5053983;28;20451;-68
2021/08/03 06:31:50;;;;;;;3.88;2.08;;;30.40;57.50;;;;;;5047964;28;20022;-70
2021/08/03 06:34:17;;;;;;;6.38;2.72;;;30.60;57.50;;;;;;5014270;28;20380;-68
2021/08/03 06:36:42;;;;;;;4.07;2.00;;;30.40;57.30;;;;;;5015565;28;20021;-69
2021/08/03 06:39:08;;;;;;;5.20;2.55;;;30.20;56.30;;;;;;5013684;28;20437;-68
2021/08/03 06:41:39;;;;;;;2.83;1.90;;;29.70;55.80;;;;;;5015319;28;20029;-68
2021/08/03 06:44:21;;;;;;;4.43;2.40;;;29.20;56.10;;;;;;5015381;28;20033;-68
2021/08/03 06:46:52;;;;;;;6.13;2.17;;;28.60;57.10;;;;;;5030451;28;20018;-68
2021/08/03 06:49:20;;;;;;;4.40;2.40;;;28.10;58.00;;;;;;5014905;28;20026;-68
2021/08/03 06:51:48;;;;;;;4.15;2.17;;;27.60;59.10;;;;;;5015128;28;20026;-68
2021/08/03 06:54:15;;;;;;;3.92;2.22;;;27.20;59.70;;;;;;5014906;28;20026;-68
2021/08/03 06:57:14;;;;;;;5.78;2.70;;;26.90;60.60;;;;;;5015155;28;20026;-68
2021/08/03 06:59:48;;;;;;;4.28;2.45;;;26.50;61.60;;;;;;5030548;28;20113;-68
2021/08/03 07:02:26;;;;;;;4.10;2.47;;;26.30;62.30;;;;;;5013830;28;20444;-68
2021/08/03 07:04:59;;;;;;;4.80;2.45;;;26.10;62.20;;;;;;5018379;28;20041;-68
2021/08/03 07:07:26;;;;;;;2.20;1.90;;;26.00;63.00;;;;;;5034347;28;20022;-68
2021/08/03 07:09:54;;;;;;;3.95;2.17;;;26.10;62.70;;;;;;5033348;28;20048;-68
2021/08/03 07:12:21;;;;;;;3.67;2.45;;;26.20;62.30;;;;;;5032896;28;20070;-68
2021/08/03 07:14:48;;;;;;;4.63;2.20;;;26.40;62.40;;;;;;5034321;28;20040;-68
2021/08/03 07:17:15;;;;;;;2.58;2.10;;;26.60;62.20;;;;;;5033119;28;20037;-69
2021/08/03 07:19:42;;;;;;;3.45;1.95;;;27.00;62.20;;;;;;5033421;28;20033;-68
2021/08/03 07:22:10;;;;;;;5.15;2.10;;;27.80;62.30;;;;;;5033996;28;20108;-69
2021/08/03 07:24:37;;;;;;;3.17;2.10;;;28.70;60.40;;;;;;5034161;28;20029;-69
2021/08/03 07:27:03;;;;;;;3.17;2.00;;;29.40;59.00;;;;;;5034247;28;20428;-69
2021/08/03 07:29:29;;;;;;;3.05;2.10;;;29.90;57.70;;;;;;5032967;28;20083;-68
2021/08/03 07:31:55;;;;;;;4.38;1.85;;;30.70;57.00;;;;;;5032824;28;20025;-69
2021/08/03 07:34:20;;;;;;;3.75;2.20;;;31.20;54.70;;;;;;5033917;28;20466;-68
2021/08/03 07:36:46;;;;;;;3.22;1.98;;;31.60;54.40;;;;;;5033849;28;20026;-69
2021/08/03 07:39:13;;;;;;;2.22;1.52;;;32.00;53.30;;;;;;5032638;28;20037;-69
2021/08/03 07:41:38;;;;;;;5.57;3.00;;;32.40;52.50;;;;;;5032771;28;20348;-69
2021/08/03 07:44:05;;;;;;;4.07;1.70;;;32.60;51.40;;;;;;5033849;28;20021;-69
2021/08/03 07:46:32;;;;;;;2.47;1.80;;;32.80;50.30;;;;;;5032687;28;20476;-69
2021/08/03 07:48:59;;;;;;;3.25;1.77;;;33.00;48.80;;;;;;5033619;28;20029;-70
2021/08/03 07:51:25;;;;;;;4.25;1.73;;;33.10;49.00;;;;;;5033892;28;20091;-69
2021/08/03 07:53:51;;;;;;;2.63;1.60;;;33.40;48.30;;;;;;5033568;28;20400;-69
2021/08/03 07:56:18;;;;;;;2.22;1.70;;;33.60;48.50;;;;;;5032497;28;20063;-69
2021/08/03 07:58:44;;;;;;;2.15;1.30;;;33.80;48.00;;;;;;5033664;28;20068;-69
2021/08/03 08:01:10;;;;;;;3.00;2.05;;;33.90;47.70;;;;;;5033908;28;20026;-67
2021/08/03 08:03:37;;;;;;;3.70;1.77;;;34.10;48.20;;;;;;5033926;28;20033;-67
2021/08/03 08:06:04;;;;;;;2.80;1.80;;;34.40;47.40;;;;;;5032272;28;20053;-67
2021/08/03 08:08:30;;;;;;;2.72;2.13;;;34.30;46.80;;;;;;5033764;28;20029;-67
2021/08/03 08:10:57;;;;;;;2.70;2.00;;;34.50;46.00;;;;;;5032238;28;20460;-67
2021/08/03 08:13:22;;;;;;;3.80;2.22;;;34.60;46.10;;;;;;5032439;28;20033;-69
2021/08/03 08:15:48;;;;;;;3.78;1.90;;;34.70;45.40;;;;;;5033104;28;20025;-68
2021/08/03 08:18:14;;;;;;;3.58;1.60;;;34.70;44.80;;;;;;5015676;28;20121;-67
2021/08/03 08:20:42;;;;;;;2.35;1.80;;;34.70;44.90;;;;;;5014102;28;20022;-67
2021/08/03 08:23:09;;;;;;;1.83;1.50;;;34.70;45.20;;;;;;5012875;28;20403;-67
2021/08/03 08:25:36;;;;;;;3.35;1.60;;;34.90;45.60;;;;;;5028924;28;20018;-67
2021/08/03 08:28:02;;;;;;;4.05;1.83;;;35.00;45.70;;;;;;5012504;28;20120;-67
2021/08/03 08:30:27;;;;;;;2.00;1.80;;;35.10;44.30;;;;;;5013793;28;20048;-67
2021/08/03 08:32:53;;;;;;;2.63;1.92;;;35.00;44.10;;;;;;5017388;28;20017;-69
2021/08/03 08:35:19;;;;;;;2.22;1.60;;;35.00;44.40;;;;;;5017594;28;20094;-69
2021/08/03 08:37:45;;;;;;;2.75;1.80;;;35.00;44.40;;;;;;5032974;28;20022;-69
2021/08/03 08:40:12;;;;;;;3.72;1.90;;;35.00;43.80;;;;;;5016142;28;20038;-69
2021/08/03 08:42:40;;;;;;;2.53;2.00;;;34.90;44.20;;;;;;5016137;28;20029;-69
2021/08/03 08:45:06;;;;;;;2.72;1.75;;;35.00;43.90;;;;;;5032831;28;20512;-69
2021/08/03 08:47:33;;;;;;;4.80;2.35;;;35.10;44.20;;;;;;5017426;28;20022;-69
2021/08/03 08:50:05;;;;;;;1.98;1.63;;;35.20;44.20;;;;;;5017499;28;20030;-69
2021/08/03 08:52:36;;;;;;;2.33;1.75;;;35.30;43.90;;;;;;5019728;28;20018;-70
2021/08/03 08:55:03;;;;;;;1.73;1.60;;;35.50;43.60;;;;;;5017640;28;20026;-69
2021/08/03 08:57:29;;;;;;;2.25;1.70;;;35.60;44.30;;;;;;5015944;28;20026;-69
2021/08/03 08:59:54;;;;;;;2.63;1.95;;;35.70;43.80;;;;;;5016939;28;20033;-69
2021/08/03 09:02:39;;;;;;;2.47;1.83;;;35.80;43.40;;;;;;5016968;28;20033;-69
2021/08/03 09:05:09;;;;;;;3.55;2.00;;;35.60;42.50;;;;;;5032441;28;20102;-68
2021/08/03 09:07:55;;;;;;;3.05;1.88;;;35.50;43.10;;;;;;5015850;28;20474;-67
2021/08/03 09:10:38;;;;;;;3.08;1.80;;;35.40;42.80;;;;;;5017365;28;20065;-69
2021/08/03 09:13:08;;;;;;;2.35;1.70;;;35.00;42.30;;;;;;5017002;28;20025;-69
2021/08/03 09:15:38;;;;;;;2.85;1.58;;;34.80;42.50;;;;;;5032117;28;20076;-69
2021/08/03 09:18:54;;;;;;;3.42;2.00;;;34.70;43.20;;;;;;5016664;28;20375;-69
2021/08/03 09:21:29;;;;;;;2.25;1.63;;;35.00;45.00;;;;;;5014528;28;20040;-68
2021/08/03 09:23:56;;;;;;;3.47;1.80;;;35.20;43.50;;;;;;5015769;28;20036;-70
2021/08/03 09:26:42;;;;;;;2.17;1.80;;;35.30;42.60;;;;;;5015458;28;20026;-69
2021/08/03 09:29:11;;;;;;;4.00;2.20;;;35.50;43.10;;;;;;5015068;28;20026;-69
2021/08/03 09:31:38;;;;;;;2.38;1.55;;;35.60;42.80;;;;;;5015679;28;20056;-69
2021/08/03 09:34:15;;;;;;;3.40;1.77;;;35.70;42.60;;;;;;5016452;28;20037;-67
2021/08/03 09:37:11;;;;;;;3.13;1.70;;;35.80;42.40;;;;;;5015095;28;20053;-67
2021/08/03 09:39:43;;;;;;;1.90;1.50;;;36.00;42.50;;;;;;5016373;28;20133;-67
2021/08/03 09:42:23;;;;;;;1.98;1.70;;;36.00;41.40;;;;;;5016043;28;20520;-67
2021/08/03 09:44:55;;;;;;;1.88;1.45;;;36.00;41.20;;;;;;5014672;28;20069;-67
2021/08/03 09:47:22;;;;;;;2.72;1.50;;;36.00;40.50;;;;;;5015124;28;20360;-67
2021/08/03 09:49:51;;;;;;;2.13;1.58;;;35.80;41.00;;;;;;5016012;28;20026;-68
2021/08/03 09:52:20;;;;;;;2.47;1.77;;;35.90;40.50;;;;;;5015034;28;20026;-68
2021/08/03 09:54:47;;;;;;;2.20;1.33;;;35.80;41.10;;;;;;5015401;28;20029;-68
2021/08/03 09:57:26;;;;;;;3.05;1.45;;;36.00;41.30;;;;;;5031313;28;20076;-68
2021/08/03 09:59:55;;;;;;;6.35;1.50;;;36.30;41.20;;;;;;5031376;28;20064;-68
2021/08/03 10:02:26;;;;;;;1.75;1.30;;;36.50;41.20;;;;;;5015692;28;20471;-68
2021/08/03 10:04:54;;;;;;;4.63;2.00;;;36.50;39.90;;;;;;5014945;28;20460;-68
2021/08/03 10:07:20;;;;;;;3.05;1.45;;;36.70;40.60;;;;;;5031393;28;20125;-68
2021/08/03 10:09:48;;;;;;;3.00;1.60;;;36.60;39.50;;;;;;5016026;28;20424;-68
2021/08/03 10:12:15;;;;;;;3.30;1.40;;;36.50;39.80;;;;;;5030896;28;20022;-68
2021/08/03 10:14:41;;;;;;;3.25;1.48;;;36.40;39.90;;;;;;5016046;28;20022;-68
2021/08/03 10:17:10;;;;;;;2.03;1.77;;;36.30;39.40;;;;;;5031371;28;20028;-68
2021/08/03 10:19:37;;;;;;;2.78;1.70;;;36.50;40.60;;;;;;5015464;28;20407;-68
2021/08/03 10:22:05;;;;;;;2.53;1.48;;;36.50;40.30;;;;;;5015593;28;20413;-68
2021/08/03 10:24:36;;;;;;;1.77;1.45;;;36.50;39.50;;;;;;5014396;28;20018;-68
2021/08/03 10:27:14;;;;;;;3.30;1.38;;;36.50;39.50;;;;;;5015964;28;20080;-67
2021/08/03 10:29:45;;;;;;;4.40;1.90;;;36.70;39.60;;;;;;5014245;28;20030;-67
2021/08/03 10:32:41;;;;;;;3.13;1.70;;;36.70;39.30;;;;;;5030782;28;20022;-67
2021/08/03 10:35:21;;;;;;;3.33;1.70;;;36.60;40.20;;;;;;5014238;28;20142;-68
2021/08/03 10:37:58;;;;;;;3.65;1.60;;;36.60;39.80;;;;;;5015435;28;20253;-68
2021/08/03 10:40:43;;;;;;;2.97;1.50;;;36.50;39.50;;;;;;5030575;28;20041;-68
2021/08/03 10:43:20;;;;;;;;;;;36.40;40.00;;;;;;5015606;28;20419;-67
2021/08/03 10:45:48;;;;;;;2.33;1.77;;;36.30;40.60;;;;;;5015581;28;20340;-67
2021/08/03 10:48:41;;;;;;;2.17;1.70;;;36.30;39.90;;;;;;5013694;28;20025;-68
2021/08/03 10:51:16;;;;;;;2.30;1.77;;;36.20;39.70;;;;;;5013066;28;20033;-67
2021/08/03 10:54:16;;;;;;;2.53;1.60;;;36.30;39.40;;;;;;5015180;28;20029;-67
2021/08/03 10:56:55;;;;;;;2.80;1.40;;;36.30;39.30;;;;;;5015026;28;20026;-68
2021/08/03 10:59:34;;;;;;;2.65;1.20;;;36.40;39.50;;;;;;5015017;28;20404;-68
2021/08/03 11:02:08;;;;;;;3.08;1.40;;;36.60;39.00;;;;;;5014819;28;20018;-67
2021/08/03 11:04:43;;;;;;;2.10;1.40;;;36.50;38.10;;;;;;5013462;28;20080;-68
2021/08/03 11:07:27;;;;;;;3.53;1.58;;;36.50;39.20;;;;;;5014901;28;20022;-67
2021/08/03 11:10:19;;;;;;;1.65;1.40;;;36.60;39.40;;;;;;5030291;28;20104;-68
2021/08/03 11:12:49;;;;;;;1.80;1.50;;;36.70;38.50;;;;;;5014432;28;20053;-68
2021/08/03 11:15:24;;;;;;;3.30;1.50;;;36.60;37.50;;;;;;5013258;28;20460;-67
2021/08/03 11:17:57;;;;;;;3.92;1.52;;;36.20;37.40;;;;;;5014665;28;20478;-67
2021/08/03 11:20:40;;;;;;;5.20;1.88;;;36.00;38.80;;;;;;5013245;28;20029;-68
2021/08/03 11:23:07;;;;;;;3.90;1.60;;;36.20;38.90;;;;;;5014521;28;20381;-67
2021/08/03 11:25:35;;;;;;;2.35;1.60;;;36.10;38.90;;;;;;5014608;28;20111;-68
2021/08/03 11:28:09;;;;;;;2.60;1.48;;;35.70;38.40;;;;;;5013352;28;20033;-67
2021/08/03 11:30:35;;;;;;;4.80;1.70;;;35.30;39.10;;;;;;5029631;28;20110;-67
2021/08/03 11:33:01;;;;;;;2.40;1.90;;;34.60;40.00;;;;;;5013296;28;20118;-67
2021/08/03 11:35:30;;;;;;;3.47;2.20;;;33.60;41.40;;;;;;5013203;28;20025;-67
2021/08/03 11:38:02;;;;;;;3.17;2.00;;;32.90;42.10;;;;;;5012946;28;20072;-67
2021/08/03 11:40:28;;;;;;;3.13;2.10;;;32.40;42.60;;;;;;5014380;28;20028;-67
2021/08/03 11:42:57;;;;;;;10.65;2.63;;;31.80;43.10;;;;;;5014581;28;20105;-67
2021/08/03 11:45:24;;;;;;;2.40;2.00;;;31.40;43.90;;;;;;5014457;28;20033;-66
2021/08/03 11:47:57;;;;;;;3.63;1.80;;;31.10;45.00;;;;;;5014197;28;20352;-66
2021/08/03 11:50:30;;;;;;;2.95;1.90;;;30.80;45.40;;;;;;5014019;28;20017;-66
2021/08/03 11:53:05;;;;;;;2.97;1.90;;;30.70;45.50;;;;;;5013891;28;20022;-67
2021/08/03 11:55:32;;;;;;;3.38;2.05;;;30.60;45.00;;;;;;5014065;28;20449;-66
2021/08/03 11:57:57;;;;;;;4.32;1.90;;;30.50;45.40;;;;;;5029608;28;20080;-65
2021/08/03 12:00:24;;;;;;;5.25;2.50;;;30.40;45.40;;;;;;5012873;28;20022;-66
2021/08/03 12:02:57;;;;;;;5.13;1.92;;;30.40;46.80;;;;;;5014507;28;20022;-66
2021/08/03 12:05:38;;;;;;;4.40;2.10;;;30.40;47.30;;;;;;5013824;28;20416;-66
2021/08/03 12:08:11;;;;;;;3.13;2.10;;;30.30;46.90;;;;;;5014125;28;20068;-66
2021/08/03 12:10:42;;;;;;;3.35;1.80;;;30.30;47.10;;;;;;5013655;28;20452;-66
2021/08/03 12:13:09;;;;;;;3.45;1.90;;;30.30;46.90;;;;;;5014004;28;20034;-66
2021/08/03 12:15:50;;;;;;;3.50;2.10;;;30.20;47.50;;;;;;5012420;28;20022;-66
2021/08/03 12:18:16;;;;;;;3.15;1.95;;;30.00;47.10;;;;;;5012700;28;20018;-66
2021/08/03 12:20:43;;;;;;;4.70;2.40;;;29.90;47.80;;;;;;5014217;28;20026;-66
2021/08/03 12:23:18;;;;;;;2.80;1.60;;;29.70;48.00;;;;;;5029556;28;20338;-66
2021/08/03 12:25:56;;;;;;;2.70;1.90;;;29.60;47.80;;;;;;5012400;28;20080;-66
2021/08/03 12:28:26;;;;;;;2.47;1.95;;;29.60;48.10;;;;;;5012636;28;20029;-66
2021/08/03 12:30:52;;;;;;;6.05;2.05;;;29.60;48.40;;;;;;5013802;28;20411;-66
2021/08/03 12:33:33;;;;;;;3.42;2.08;;;29.50;47.70;;;;;;5013993;28;20021;-66
2021/08/03 12:36:08;;;;;;;4.72;2.08;;;29.50;47.80;;;;;;5013703;28;20045;-66
2021/08/03 12:38:35;;;;;;;2.83;2.28;;;29.40;47.90;;;;;;5012127;28;20022;-66
2021/08/03 12:41:22;;;;;;;3.53;2.45;;;29.40;48.30;;;;;;5012903;28;20028;-66
2021/08/03 12:43:47;;;;;;;3.30;2.25;;;29.30;48.50;;;;;;5013502;28;20479;-67
2021/08/03 12:46:14;;;;;;;4.28;2.10;;;29.20;49.00;;;;;;5013694;28;20024;-66
2021/08/03 12:48:50;;;;;;;5.30;2.50;;;29.30;49.00;;;;;;5013477;28;20079;-67
2021/08/03 12:51:28;;;;;;;2.88;2.40;;;29.40;49.40;;;;;;5012031;28;20022;-67
2021/08/03 12:54:08;;;;;;;3.13;2.17;;;29.40;49.50;;;;;;5013440;28;20033;-67
2021/08/03 12:56:46;;;;;;;2.92;2.10;;;29.40;50.10;;;;;;5013646;28;20032;-67
2021/08/03 12:59:35;;;;;;;4.60;2.35;;;29.30;50.40;;;;;;5013623;28;20348;-67
2021/08/03 13:02:01;;;;;;;4.07;2.20;;;29.30;50.40;;;;;;5012298;28;20030;-66
2021/08/03 13:04:27;;;;;;;4.88;2.22;;;29.20;49.50;;;;;;5011944;28;20038;-67